Time;durP1;ratioP1;P1;durP2;ratioP2;P2;SDS_P1;SDS_P2;PMS_P1;PMS_P2;Temp;Humidity;BMP_temperature;BMP_pressure;BME280_temperature;BME280_humidity;BME280_pressure;Samples;Min_cycle;Max_cycle;Signal;HPM_P1;HPM_P2
2023/04/17 00:00:31;;;;;;;;;;;7.60;99.90;;;;;;5113004;28;20018;-71
2023/04/17 00:02:56;;;;;;;;;;;7.80;99.90;;;;;;5113155;28;19920;-71
2023/04/17 00:05:22;;;;;;;;;;;7.60;99.90;;;;;;5112554;28;19923;-71
2023/04/17 00:07:48;;;;;;;;;;;7.70;99.90;;;;;;5095042;28;19993;-71
2023/04/17 00:10:13;;;;;;;;;;;7.60;99.90;;;;;;5094892;28;20014;-71
2023/04/17 00:12:39;;;;;;;;;;;7.60;99.90;;;;;;5094035;28;20026;-71
2023/04/17 00:15:05;;;;;;;;;;;7.80;99.90;;;;;;5113023;28;19924;-71
2023/04/17 00:17:30;;;;;;;;;;;7.60;99.90;;;;;;5113142;28;20435;-71
2023/04/17 00:19:56;;;;;;;;;;;7.60;99.90;;;;;;5093942;28;19971;-71
2023/04/17 00:22:21;;;;;;;;;;;7.60;99.90;;;;;;5094660;28;19968;-71
2023/04/17 00:24:47;;;;;;;;;;;7.60;99.90;;;;;;5094959;28;20014;-71
2023/04/17 00:27:12;;;;;;;;;;;7.60;99.90;;;;;;5094103;28;19928;-71
2023/04/17 00:29:38;;;;;;;;;;;7.70;99.90;;;;;;5113353;28;20389;-71
2023/04/17 00:32:04;;;;;;;;;;;8.50;99.90;;;;;;5112589;28;19924;-71
2023/04/17 00:34:29;;;;;;;;;;;7.60;99.90;;;;;;5093677;28;20018;-71
2023/04/17 00:36:55;;;;;;;;;;;7.60;99.90;;;;;;5094415;28;20303;-71
2023/04/17 00:39:20;;;;;;;;;;;7.60;99.90;;;;;;5115019;28;20432;-71
2023/04/17 00:41:46;;;;;;;;;;;7.60;99.90;;;;;;5097944;28;20268;-71
2023/04/17 00:44:11;;;;;;;;;;;8.90;99.90;;;;;;5098186;28;19924;-72
2023/04/17 00:46:37;;;;;;;;;;;7.60;99.90;;;;;;5116363;28;19928;-71
2023/04/17 00:49:03;;;;;;;;;;;7.50;99.90;;;;;;5116854;28;19920;-71
2023/04/17 00:51:29;;;;;;;;;;;7.80;99.90;;;;;;5098843;28;19924;-71
2023/04/17 00:53:54;;;;;;;;;;;7.50;99.90;;;;;;5115928;28;20367;-71
2023/04/17 00:56:20;;;;;;;;;;;7.60;99.90;;;;;;5098246;28;20311;-71
2023/04/17 00:58:46;;;;;;;;;;;8.00;99.90;;;;;;5116704;28;19923;-71
2023/04/17 01:01:12;;;;;;;;;;;7.60;99.90;;;;;;5115828;28;19969;-71
2023/04/17 01:03:37;;;;;;;;;;;7.70;99.90;;;;;;5098265;28;19927;-71
2023/04/17 01:06:03;;;;;;;;;;;7.70;99.90;;;;;;5098094;28;20022;-71
2023/04/17 01:08:38;;;;;;;;;;;7.50;99.90;;;;;;5116014;28;20014;-71
2023/04/17 01:11:04;;;;;;;;;;;7.50;99.90;;;;;;5115940;28;19969;-71
2023/04/17 01:13:29;;;;;;;;;;;7.60;99.90;;;;;;5098450;28;19923;-71
2023/04/17 01:15:55;;;;;;;;;;;7.50;99.90;;;;;;5097344;28;19961;-71
2023/04/17 01:18:20;;;;;;;;;;;7.50;99.90;;;;;;5116408;28;19935;-71
2023/04/17 01:20:46;;;;;;;;;;;7.60;99.90;;;;;;5116181;28;19928;-71
2023/04/17 01:23:11;;;;;;;;;;;7.60;99.90;;;;;;5096734;28;19923;-71
2023/04/17 01:25:37;;;;;;;;;;;7.60;99.90;;;;;;5115811;28;19947;-71
2023/04/17 01:28:03;;;;;;;;;;;8.10;99.90;;;;;;5115538;28;20044;-71
2023/04/17 01:30:28;;;;;;;;;;;7.50;99.90;;;;;;5115202;28;20016;-71
2023/04/17 01:32:54;;;;;;;;;;;7.60;99.90;;;;;;5115524;28;20014;-71
2023/04/17 01:35:20;;;;;;;;;;;7.60;99.90;;;;;;5097946;28;19931;-71
2023/04/17 01:37:46;;;;;;;;;;;7.50;99.90;;;;;;5097102;28;19923;-71
2023/04/17 01:40:11;;;;;;;;;;;7.50;99.90;;;;;;5115836;28;19923;-71
2023/04/17 01:42:37;;;;;;;;;;;7.50;99.90;;;;;;5097201;28;19924;-71
2023/04/17 01:45:03;;;;;;;;;;;7.50;99.90;;;;;;5114366;28;19924;-71
2023/04/17 01:47:29;;;;;;;;;;;7.50;99.90;;;;;;5097444;28;19924;-71
2023/04/17 01:49:54;;;;;;;;;;;8.10;99.90;;;;;;5114678;28;19947;-72
2023/04/17 01:52:20;;;;;;;;;;;7.40;99.90;;;;;;5097297;28;19928;-71
2023/04/17 01:54:45;;;;;;;;;;;7.40;99.90;;;;;;5097484;28;20015;-71
2023/04/17 01:57:11;;;;;;;;;;;7.90;99.90;;;;;;5092746;28;20345;-71
2023/04/17 01:59:36;;;;;;;;;;;7.40;99.90;;;;;;5095053;28;19928;-71
2023/04/17 02:02:02;;;;;;;;;;;7.40;99.90;;;;;;5094709;28;19931;-71
2023/04/17 02:04:27;;;;;;;;;;;7.40;99.90;;;;;;5094089;28;19928;-71
2023/04/17 02:06:53;;;;;;;;;;;7.40;99.90;;;;;;5095017;28;19924;-71
2023/04/17 02:09:18;;;;;;;;;;;7.30;99.90;;;;;;5093973;28;19947;-71
2023/04/17 02:11:44;;;;;;;;;;;7.60;99.90;;;;;;5092953;28;19924;-71
2023/04/17 02:14:10;;;;;;;;;;;7.50;99.90;;;;;;5093598;28;20167;-71
2023/04/17 02:16:36;;;;;;;;;;;7.30;99.90;;;;;;5093393;28;19931;-71
2023/04/17 02:19:02;;;;;;;;;;;7.30;99.90;;;;;;5092438;28;19930;-71
2023/04/17 02:21:27;;;;;;;;;;;8.00;99.90;;;;;;5093267;28;19924;-71
2023/04/17 02:23:53;;;;;;;;;;;7.30;99.90;;;;;;5093236;28;19924;-71
2023/04/17 02:26:18;;;;;;;;;;;7.30;99.90;;;;;;5092593;28;19975;-71
2023/04/17 02:28:44;;;;;;;;;;;7.30;99.90;;;;;;5092679;28;20363;-71
2023/04/17 02:31:10;;;;;;;;;;;7.30;99.90;;;;;;5094098;28;20403;-71
2023/04/17 02:33:36;;;;;;;;;;;7.70;99.90;;;;;;5092559;28;20295;-71
2023/04/17 02:36:02;;;;;;;;;;;7.30;99.90;;;;;;5094000;28;19924;-71
2023/04/17 02:38:31;;;;;;;;;;;7.30;99.90;;;;;;5093067;28;19924;-71
2023/04/17 02:40:57;;;;;;;;;;;7.30;99.90;;;;;;5092377;28;19931;-71
2023/04/17 02:43:22;;;;;;;;;;;7.20;99.90;;;;;;5094287;28;19924;-71
2023/04/17 02:45:48;;;;;;;;;;;7.20;99.90;;;;;;5092661;28;19971;-71
2023/04/17 02:48:14;;;;;;;;;;;7.20;99.90;;;;;;5093121;28;20041;-71
2023/04/17 02:50:39;;;;;;;;;;;7.20;99.90;;;;;;5092507;28;20007;-71
2023/04/17 02:53:05;;;;;;;;;;;7.10;99.90;;;;;;5126833;27;19964;-71
2023/04/17 02:55:30;;;;;;;;;;;7.20;99.90;;;;;;5092391;28;20439;-71
2023/04/17 02:57:56;;;;;;;;;;;7.20;99.90;;;;;;5110952;28;19930;-71
2023/04/17 03:00:21;;;;;;;;;;;7.50;99.90;;;;;;5095352;28;20337;-71
2023/04/17 03:02:47;;;;;;;;;;;7.10;99.90;;;;;;5113705;28;20109;-71
2023/04/17 03:05:13;;;;;;;;;;;7.80;99.90;;;;;;5114034;28;19928;-71
2023/04/17 03:07:39;;;;;;;;;;;7.60;99.90;;;;;;5095298;28;20358;-71
2023/04/17 03:10:05;;;;;;;;;;;7.10;99.90;;;;;;5113900;28;20018;-71
2023/04/17 03:12:31;;;;;;;;;;;7.10;99.90;;;;;;5095542;28;20027;-71
2023/04/17 03:14:56;;;;;;;;;;;7.10;99.90;;;;;;5094594;28;20022;-71
2023/04/17 03:17:22;;;;;;;;;;;7.10;99.90;;;;;;5095889;28;19970;-71
2023/04/17 03:19:47;;;;;;;;;;;7.10;99.90;;;;;;5113980;28;20305;-71
2023/04/17 03:22:13;;;;;;;;;;;7.10;99.90;;;;;;5094897;28;20328;-71
2023/04/17 03:24:40;;;;;;;;;;;7.10;99.90;;;;;;5113046;28;19924;-70
2023/04/17 03:27:05;;;;;;;;;;;7.10;99.90;;;;;;5094632;28;19924;-71
2023/04/17 03:29:31;;;;;;;;;;;7.00;99.90;;;;;;5113041;28;20280;-71
2023/04/17 03:31:56;;;;;;;;;;;7.10;99.90;;;;;;5113678;28;19978;-70
2023/04/17 03:34:22;;;;;;;;;;;7.00;99.90;;;;;;5095525;28;19924;-71
2023/04/17 03:36:47;;;;;;;;;;;7.00;99.90;;;;;;5112279;28;20020;-72
2023/04/17 03:39:13;;;;;;;;;;;7.10;99.90;;;;;;5094970;28;19976;-71
2023/04/17 03:41:39;;;;;;;;;;;7.10;99.90;;;;;;5095628;28;19923;-71
2023/04/17 03:44:05;;;;;;;;;;;7.00;99.90;;;;;;5112681;28;19927;-72
2023/04/17 03:46:31;;;;;;;;;;;6.90;99.90;;;;;;5095406;28;20450;-69
2023/04/17 03:48:56;;;;;;;;;;;7.00;99.90;;;;;;5094940;28;20020;-69
2023/04/17 03:51:22;;;;;;;;;;;6.90;99.90;;;;;;5094579;28;19924;-70
2023/04/17 03:53:48;;;;;;;;;;;6.90;99.90;;;;;;5095379;28;20011;-69
2023/04/17 03:56:13;;;;;;;;;;;6.90;99.90;;;;;;5094842;28;20069;-70
2023/04/17 03:58:39;;;;;;;;;;;7.00;99.90;;;;;;5111939;28;20375;-70
2023/04/17 04:01:09;;;;;;;;;;;6.90;99.90;;;;;;5094894;28;19924;-69
2023/04/17 04:03:35;;;;;;;;;;;6.90;99.90;;;;;;5094295;28;19927;-70
2023/04/17 04:06:00;;;;;;;;;;;7.00;99.90;;;;;;5094974;28;19928;-69
2023/04/17 04:08:26;;;;;;;;;;;6.90;99.90;;;;;;5113303;28;20011;-69
2023/04/17 04:10:51;;;;;;;;;;;6.90;99.90;;;;;;5112149;28;19924;-70
2023/04/17 04:13:17;;;;;;;;;;;6.90;99.90;;;;;;5096662;28;19927;-69
2023/04/17 04:15:42;;;;;;;;;;;6.90;99.90;;;;;;5099185;28;19923;-69
2023/04/17 04:18:08;;;;;;;;;;;6.90;99.90;;;;;;5116605;28;19923;-67
2023/04/17 04:20:34;;;;;;;;;;;7.00;99.90;;;;;;5117504;28;20383;-68
2023/04/17 04:22:59;;;;;;;;;;;6.80;99.90;;;;;;5098832;28;19923;-70
2023/04/17 04:25:25;;;;;;;;;;;6.80;99.90;;;;;;5116618;28;20340;-69
2023/04/17 04:27:51;;;;;;;;;;;6.90;99.90;;;;;;5116488;28;19980;-70
2023/04/17 04:30:17;;;;;;;;;;;6.80;99.90;;;;;;5117599;28;20295;-70
2023/04/17 04:32:44;;;;;;;;;;;6.80;99.90;;;;;;5116535;28;19931;-70
2023/04/17 04:35:10;;;;;;;;;;;6.80;99.90;;;;;;5098027;28;19924;-70
2023/04/17 04:37:35;;;;;;;;;;;6.80;99.90;;;;;;5098618;28;19947;-69
2023/04/17 04:40:09;;;;;;;;;;;6.70;99.90;;;;;;5115656;28;19931;-70
2023/04/17 04:42:41;;;;;;;;;;;6.70;99.90;;;;;;5116817;28;19934;-70
2023/04/17 04:45:07;;;;;;;;;;;6.70;99.90;;;;;;5116210;28;19931;-69
2023/04/17 04:47:33;;;;;;;;;;;6.80;99.90;;;;;;5097182;28;20367;-69
2023/04/17 04:49:58;;;;;;;;;;;6.70;99.90;;;;;;5097955;28;19954;-69
2023/04/17 04:52:27;;;;;;;;;;;7.00;99.90;;;;;;5098426;28;19974;-71
2023/04/17 04:54:53;;;;;;;;;;;6.80;99.90;;;;;;5096936;28;19924;-70
2023/04/17 04:57:18;;;;;;;;;;;6.80;99.90;;;;;;5115537;28;20283;-70
2023/04/17 04:59:44;;;;;;;;;;;6.70;99.90;;;;;;5116322;28;19924;-69
2023/04/17 05:02:10;;;;;;;;;;;6.80;99.90;;;;;;5115600;28;20386;-69
2023/04/17 05:04:35;;;;;;;;;;;7.00;99.90;;;;;;5097883;28;19976;-70
2023/04/17 05:07:03;;;;;;;;;;;7.50;99.90;;;;;;5114732;28;19927;-70
2023/04/17 05:09:30;;;;;;;;;;;6.70;99.90;;;;;;5116520;28;19924;-69
2023/04/17 05:11:56;;;;;;;;;;;6.80;99.90;;;;;;5097094;28;19924;-67
2023/04/17 05:14:22;;;;;;;;;;;6.70;99.90;;;;;;5097606;28;19924;-69
2023/04/17 05:16:47;;;;;;;;;;;6.80;99.90;;;;;;5116663;28;19977;-69
2023/04/17 05:19:13;;;;;;;;;;;6.80;99.90;;;;;;5115588;28;20378;-68
2023/04/17 05:21:38;;;;;;;;;;;6.80;99.90;;;;;;5114978;28;20291;-69
2023/04/17 05:24:04;;;;;;;;;;;6.80;99.90;;;;;;5097067;28;19924;-68
2023/04/17 05:26:29;;;;;;;;;;;6.90;99.90;;;;;;5097581;28;19924;-68
2023/04/17 05:28:55;;;;;;;;;;;6.90;99.90;;;;;;5114885;28;20010;-68
2023/04/17 05:31:21;;;;;;;;;;;6.90;99.90;;;;;;5097769;28;19927;-68
2023/04/17 05:33:46;;;;;;;;;;;6.90;99.90;;;;;;5097985;28;19927;-69
2023/04/17 05:36:12;;;;;;;;;;;6.90;99.90;;;;;;5096381;28;20386;-69
2023/04/17 05:38:41;;;;;;;;;;;6.90;99.90;;;;;;5115516;28;19966;-71
2023/04/17 05:41:07;;;;;;;;;;;7.40;99.90;;;;;;5089394;28;19927;-69
2023/04/17 05:43:32;;;;;;;;;;;6.90;99.90;;;;;;5111067;28;19970;-69
2023/04/17 05:45:58;;;;;;;;;;;6.90;99.90;;;;;;5111562;28;19970;-66
2023/04/17 05:48:24;;;;;;;;;;;6.90;99.90;;;;;;5115337;28;19924;-67
2023/04/17 05:50:49;;;;;;;;;;;6.90;99.90;;;;;;5095510;28;19930;-67
2023/04/17 05:53:15;;;;;;;;;;;7.00;99.90;;;;;;5096953;28;20019;-69
2023/04/17 05:55:40;;;;;;;;;;;7.00;99.90;;;;;;5115395;28;19935;-67
2023/04/17 05:58:06;;;;;;;;;;;7.00;99.90;;;;;;5114054;28;19999;-69
2023/04/17 06:00:32;;;;;;;;;;;7.00;99.90;;;;;;5115684;28;19923;-68
2023/04/17 06:03:00;;;;;;;;;;;7.60;99.90;;;;;;5096959;28;19971;-69
2023/04/17 06:05:26;;;;;;;;;;;7.00;99.90;;;;;;5096493;28;19967;-69
2023/04/17 06:07:51;;;;;;;;;;;7.00;99.90;;;;;;5096333;28;20016;-68
2023/04/17 06:10:17;;;;;;;;;;;7.10;99.90;;;;;;5113818;28;20013;-69
2023/04/17 06:12:42;;;;;;;;;;;7.10;99.90;;;;;;5096909;28;20375;-68
2023/04/17 06:15:08;;;;;;;;;;;7.50;99.90;;;;;;5114886;28;19931;-71
2023/04/17 06:17:35;;;;;;;;;;;7.20;99.90;;;;;;5114638;28;19931;-70
2023/04/17 06:20:00;;;;;;;;;;;7.20;99.90;;;;;;5113797;28;19924;-70
2023/04/17 06:22:26;;;;;;;;;;;7.20;99.90;;;;;;5115259;28;19920;-70
2023/04/17 06:24:51;;;;;;;;;;;7.20;99.90;;;;;;5095543;28;19953;-69
2023/04/17 06:27:19;;;;;;;;;;;7.20;99.90;;;;;;5109494;28;19999;-69
2023/04/17 06:29:45;;;;;;;;;;;7.70;99.90;;;;;;5094004;28;19930;-69
2023/04/17 06:32:10;;;;;;;;;;;7.30;99.90;;;;;;5095442;28;19931;-70
2023/04/17 06:34:36;;;;;;;;;;;7.30;99.90;;;;;;5114471;28;20331;-70
2023/04/17 06:37:01;;;;;;;;;;;7.70;99.90;;;;;;5113288;28;19924;-69
2023/04/17 06:39:27;;;;;;;;;;;7.40;99.90;;;;;;5094386;28;19976;-68
2023/04/17 06:41:52;;;;;;;;;;;7.50;99.90;;;;;;5096276;28;19976;-68
2023/04/17 06:44:18;;;;;;;;;;;7.60;99.90;;;;;;5114707;28;19930;-69
2023/04/17 06:46:43;;;;;;;;;;;7.70;99.90;;;;;;5113351;28;19982;-69
2023/04/17 06:49:09;;;;;;;;;;;7.70;99.90;;;;;;5095853;28;20023;-69
2023/04/17 06:51:35;;;;;;;;;;;7.80;99.90;;;;;;5114758;28;19966;-69
2023/04/17 06:54:00;;;;;;;;;;;8.00;99.90;;;;;;5113529;28;19973;-69
2023/04/17 06:56:26;;;;;;;;;;;7.90;99.90;;;;;;5095669;28;19924;-69
2023/04/17 06:58:52;;;;;;;;;;;8.00;99.90;;;;;;5114359;28;20282;-69
2023/04/17 07:01:18;;;;;;;;;;;8.00;99.90;;;;;;5095286;28;20291;-69
2023/04/17 07:03:44;;;;;;;;;;;8.00;99.90;;;;;;5114288;28;19930;-70
2023/04/17 07:06:10;;;;;;;;;;;8.10;99.90;;;;;;5096094;28;20257;-69
2023/04/17 07:08:35;;;;;;;;;;;8.10;99.90;;;;;;5095277;28;19923;-71
2023/04/17 07:11:01;;;;;;;;;;;8.10;99.90;;;;;;5114252;28;19924;-70
2023/04/17 07:13:30;;;;;;;;;;;8.20;99.90;;;;;;5094960;28;19927;-71
2023/04/17 07:15:56;;;;;;;;;;;8.50;99.90;;;;;;5096044;28;19946;-69
2023/04/17 07:18:21;;;;;;;;;;;8.30;99.90;;;;;;5113916;28;19968;-71
2023/04/17 07:20:47;;;;;;;;;;;8.30;99.90;;;;;;5113436;28;19924;-68
2023/04/17 07:23:13;;;;;;;;;;;8.40;99.90;;;;;;5094967;28;19928;-69
2023/04/17 07:25:38;;;;;;;;;;;8.30;99.90;;;;;;5112794;28;20343;-69
2023/04/17 07:28:04;;;;;;;;;;;8.30;99.90;;;;;;5112315;28;20324;-69
2023/04/17 07:30:30;;;;;;;;;;;8.80;99.90;;;;;;5113971;28;19928;-69
2023/04/17 07:32:55;;;;;;;;;;;8.50;99.90;;;;;;5095289;28;19979;-69
2023/04/17 07:35:21;;;;;;;;;;;8.60;99.90;;;;;;5094759;28;19928;-69
2023/04/17 07:37:47;;;;;;;;;;;8.80;99.90;;;;;;5095294;28;19924;-69
2023/04/17 07:40:15;;;;;;;;;;;8.50;99.90;;;;;;5093050;28;20440;-69
2023/04/17 07:42:41;;;;;;;;;;;8.50;99.90;;;;;;5092875;28;19934;-69
2023/04/17 07:45:07;;;;;;;;;;;8.50;99.90;;;;;;5111345;28;19923;-69
2023/04/17 07:47:32;;;;;;;;;;;8.50;99.90;;;;;;5110460;28;19931;-69
2023/04/17 07:49:58;;;;;;;;;;;8.50;99.90;;;;;;5111028;28;19931;-69
2023/04/17 07:52:23;;;;;;;;;;;8.50;99.90;;;;;;5093496;28;20431;-69
2023/04/17 07:54:49;;;;;;;;;;;8.50;99.90;;;;;;5095104;28;19924;-69
2023/04/17 07:57:16;;;;;;;;;;;8.60;99.90;;;;;;5094008;28;20411;-69
2023/04/17 07:59:44;;;;;;;;;;;8.70;99.90;;;;;;5094836;28;20151;-69
2023/04/17 08:02:10;;;;;;;;;;;8.70;99.90;;;;;;5113240;28;19935;-69
2023/04/17 08:04:36;;;;;;;;;;;8.80;99.90;;;;;;5112261;28;19957;-69
2023/04/17 08:07:01;;;;;;;;;;;8.90;99.90;;;;;;5094741;28;20398;-69
2023/04/17 08:09:27;;;;;;;;;;;8.90;99.90;;;;;;5095203;28;19924;-69
2023/04/17 08:11:53;;;;;;;;;;;9.00;99.90;;;;;;5094145;28;19924;-70
2023/04/17 08:14:19;;;;;;;;;;;9.10;99.90;;;;;;5095362;28;19924;-70
2023/04/17 08:16:46;;;;;;;;;;;9.30;99.90;;;;;;5111966;28;19930;-70
2023/04/17 08:19:11;;;;;;;;;;;9.10;99.90;;;;;;5094022;28;20177;-70
2023/04/17 08:21:37;;;;;;;;;;;9.10;99.90;;;;;;5094990;28;20337;-70
2023/04/17 08:24:02;;;;;;;;;;;9.10;99.90;;;;;;5094257;28;20349;-69
2023/04/17 08:26:28;;;;;;;;;;;9.10;99.90;;;;;;5113292;28;20302;-70
2023/04/17 08:28:54;;;;;;;;;;;9.30;99.90;;;;;;5094571;28;19931;-69
2023/04/17 08:31:20;;;;;;;;;;;9.10;99.90;;;;;;5111971;28;20306;-69
2023/04/17 08:33:46;;;;;;;;;;;9.30;99.90;;;;;;5113140;28;20008;-69
2023/04/17 08:36:11;;;;;;;;;;;9.20;99.90;;;;;;5094584;28;19935;-67
2023/04/17 08:38:37;;;;;;;;;;;9.20;99.90;;;;;;5093977;28;19928;-66
2023/04/17 08:41:06;;;;;;;;;;;9.20;99.90;;;;;;5112855;28;20403;-66
2023/04/17 08:43:34;;;;;;;;;;;9.20;99.90;;;;;;5113209;28;19945;-67
2023/04/17 08:45:59;;;;;;;;;;;9.20;99.90;;;;;;5093490;28;19927;-66
2023/04/17 08:48:25;;;;;;;;;;;9.50;99.90;;;;;;5094757;28;19924;-67
2023/04/17 08:50:52;;;;;;;;;;;9.20;99.90;;;;;;5094806;28;20382;-67
2023/04/17 08:53:18;;;;;;;;;;;9.20;99.90;;;;;;5111786;28;19924;-66
2023/04/17 08:55:44;;;;;;;;;;;9.30;99.90;;;;;;5112815;28;20275;-66
2023/04/17 08:58:13;;;;;;;;;;;9.40;99.90;;;;;;5093989;28;20733;-66
2023/04/17 09:00:39;;;;;;;;;;;9.50;99.90;;;;;;5095836;28;19923;-66
2023/04/17 09:03:12;;;;;;;;;;;9.50;99.90;;;;;;5116413;28;19924;-66
2023/04/17 09:05:40;;;;;;;;;;;9.50;99.90;;;;;;5117016;28;19923;-67
2023/04/17 09:08:11;;;;;;;;;;;9.50;99.90;;;;;;5097518;28;20398;-67
2023/04/17 09:10:41;;;;;;;;;;;9.60;99.90;;;;;;5116188;28;19991;-67
2023/04/17 09:13:07;;;;;;;;;;;9.60;99.90;;;;;;5115682;28;20011;-66
2023/04/17 09:15:33;;;;;;;;;;;9.60;99.90;;;;;;5098166;28;19927;-67
2023/04/17 09:17:59;;;;;;;;;;;10.00;99.90;;;;;;5097606;28;19924;-66
2023/04/17 09:20:24;;;;;;;;;;;9.80;99.90;;;;;;5097268;28;19924;-67
2023/04/17 09:23:04;;;;;;;;;;;9.80;99.90;;;;;;5116009;28;20386;-67
2023/04/17 09:25:29;;;;;;;;;;;9.70;99.90;;;;;;5116314;28;19923;-66
2023/04/17 09:28:10;;;;;;;;;;;9.70;99.90;;;;;;5096985;28;19931;-66
2023/04/17 09:30:37;;;;;;;;;;;9.80;99.90;;;;;;5098280;28;19931;-66
2023/04/17 09:33:03;;;;;;;;;;;10.20;99.90;;;;;;5115712;28;20024;-66
2023/04/17 09:35:29;;;;;;;;;;;9.90;99.90;;;;;;5097092;28;19924;-66
2023/04/17 09:37:55;;;;;;;;;;;10.00;99.90;;;;;;5115471;28;20402;-67
2023/04/17 09:40:21;;;;;;;;;;;10.10;99.90;;;;;;5116308;28;19923;-67
2023/04/17 09:42:53;;;;;;;;;;;10.20;99.90;;;;;;5115419;28;19920;-66
2023/04/17 09:45:19;;;;;;;;;;;10.40;99.90;;;;;;5097442;28;19924;-67
2023/04/17 09:47:46;;;;;;;;;;;10.50;99.90;;;;;;5097411;28;20288;-67
2023/04/17 09:50:15;;;;;;;;;;;10.60;99.90;;;;;;5114588;28;19931;-67
2023/04/17 09:52:41;;;;;;;;;;;10.80;99.90;;;;;;5114963;28;19931;-67
2023/04/17 09:55:09;;;;;;;;;;;11.00;99.90;;;;;;5115572;28;19919;-67
2023/04/17 09:57:36;;;;;;;;;;;11.20;99.90;;;;;;5096250;28;20010;-67
2023/04/17 10:00:04;;;;;;;;;;;11.30;99.90;;;;;;5115581;28;19924;-66
2023/04/17 10:02:30;;;;;;;;;;;11.40;99.90;;;;;;5114414;28;19924;-67
2023/04/17 10:04:56;;;;;;;;;;;11.50;99.90;;;;;;5096955;28;19931;-67
2023/04/17 10:07:21;;;;;;;;;;;11.80;99.90;;;;;;5115669;28;20323;-68
2023/04/17 10:09:47;;;;;;;;;;;12.20;99.90;;;;;;5114604;28;20291;-69
2023/04/17 10:12:14;;;;;;;;;;;12.60;99.90;;;;;;5114522;28;19930;-69
2023/04/17 10:14:42;;;;;;;;;;;12.90;99.90;;;;;;5115429;28;19947;-70
2023/04/17 10:17:24;;;;;;;;;;;13.00;99.90;;;;;;5094916;28;19976;-69
2023/04/17 10:19:50;;;;;;;;;;;13.10;99.90;;;;;;5111726;28;19959;-70
2023/04/17 10:22:19;;;;;;;;;;;13.30;99.90;;;;;;5114408;28;20346;-69
2023/04/17 10:24:47;;;;;;;;;;;13.20;99.90;;;;;;5095698;28;19931;-68
2023/04/17 10:27:25;;;;;;;;;;;13.30;99.90;;;;;;5114767;28;20398;-68
2023/04/17 10:29:52;;;;;;;;;;;13.20;99.90;;;;;;5096171;28;19962;-69
2023/04/17 10:32:17;;;;;;;;;;;13.30;99.90;;;;;;5114313;28;20369;-71
2023/04/17 10:34:43;;;;;;;;;;;13.40;99.90;;;;;;5114908;28;20019;-71
2023/04/17 10:37:14;;;;;;;;;;;13.60;99.90;;;;;;5114734;28;19924;-71
2023/04/17 10:39:58;;;;;;;;;;;13.50;99.90;;;;;;5096144;28;20390;-71
2023/04/17 10:42:24;;;;;;;;;;;13.50;99.90;;;;;;5096538;28;19924;-71
2023/04/17 10:44:51;;;;;;;;;;;13.70;99.90;;;;;;5114195;28;19923;-71
2023/04/17 10:47:20;;;;;;;;;;;14.00;99.90;;;;;;5096611;28;19927;-71
2023/04/17 10:49:47;;;;;;;;;;;14.10;99.90;;;;;;5114667;28;19976;-71
2023/04/17 10:52:31;;;;;;;;;;;14.30;99.90;;;;;;5095181;28;19919;-71
2023/04/17 10:55:07;;;;;;;;;;;14.60;99.90;;;;;;5114029;28;19927;-71
2023/04/17 10:57:52;;;;;;;;;;;15.10;99.90;;;;;;5092675;28;19924;-71
2023/04/17 11:00:18;;;;;;;;;;;15.30;99.90;;;;;;5106054;27;19924;-71
2023/04/17 11:02:49;;;;;;;;;;;15.80;99.90;;;;;;5072544;28;20043;-71
2023/04/17 11:05:16;;;;;;;;;;;16.50;99.90;;;;;;5073425;28;19924;-71
2023/04/17 11:07:43;;;;;;;;;;;17.00;99.90;;;;;;5073044;28;19936;-71
2023/04/17 11:10:09;;;;;;;;;;;17.20;99.90;;;;;;5093496;28;20295;-71
2023/04/17 11:12:35;;;;;;;;;;;17.30;99.90;;;;;;5092090;28;19924;-72
2023/04/17 11:15:01;;;;;;;;;;;17.80;99.90;;;;;;5092074;28;20022;-71
2023/04/17 11:17:27;;;;;;;;;;;18.40;99.90;;;;;;5094014;28;19924;-71
2023/04/17 11:19:53;;;;;;;;;;;18.90;99.90;;;;;;5092192;28;19931;-72
2023/04/17 11:22:19;;;;;;;;;;;19.30;99.90;;;;;;5091874;28;19971;-72
2023/04/17 11:24:45;;;;;;;;;;;19.70;99.90;;;;;;5093859;28;19924;-72
2023/04/17 11:27:10;;;;;;;;;;;20.00;99.90;;;;;;5091412;28;19928;-71
2023/04/17 11:29:36;;;;;;;;;;;20.00;99.90;;;;;;5092563;28;19931;-72
2023/04/17 11:32:02;;;;;;;;;;;20.10;99.90;;;;;;5093305;28;19924;-72
2023/04/17 11:34:27;;;;;;;;;;;19.90;99.90;;;;;;5092818;28;20341;-72
2023/04/17 11:36:57;;;;;;;;;;;19.90;99.90;;;;;;5093214;28;20374;-71
2023/04/17 11:39:24;;;;;;;;;;;20.10;99.90;;;;;;5093151;28;19924;-71
2023/04/17 11:41:50;;;;;;;;;;;20.10;99.90;;;;;;5091784;28;19971;-71
2023/04/17 11:44:17;;;;;;;;;;;20.00;99.90;;;;;;5091902;28;19959;-71
2023/04/17 11:46:47;;;;;;;;;;;20.00;99.90;;;;;;5093571;28;19924;-72
2023/04/17 11:49:13;;;;;;;;;;;20.10;99.90;;;;;;5091220;28;20291;-71
2023/04/17 11:51:38;;;;;;;;;;;20.10;99.90;;;;;;5092362;28;19924;-71
2023/04/17 11:54:04;;;;;;;;;;;20.00;99.90;;;;;;5091366;28;19924;-72
2023/04/17 11:56:29;;;;;;;;;;;20.00;99.90;;;;;;5097369;28;19924;-72
2023/04/17 11:58:56;;;;;;;;;;;20.30;99.90;;;;;;5113322;28;19932;-71
2023/04/17 12:01:24;;;;;;;;;;;20.30;99.90;;;;;;5095184;28;19935;-72
2023/04/17 12:03:50;;;;;;;;;;;20.50;99.90;;;;;;5112666;28;19930;-72
2023/04/17 12:06:16;;;;;;;;;;;20.70;99.80;;;;;;5113503;28;19924;-72
2023/04/17 12:08:49;;;;;;;;;;;21.00;99.90;;;;;;5113296;28;20417;-72
2023/04/17 12:11:31;;;;;;;;;;;21.00;99.90;;;;;;5074011;28;19931;-71
2023/04/17 12:13:57;;;;;;;;;;;20.90;99.60;;;;;;5075754;28;20019;-72
2023/04/17 12:16:23;;;;;;;;;;;21.00;99.90;;;;;;5094452;28;20019;-72
2023/04/17 12:18:49;;;;;;;;;;;21.10;99.50;;;;;;5112725;28;20371;-72
2023/04/17 12:21:14;;;;;;;;;;;20.90;99.90;;;;;;5094773;28;19930;-72
2023/04/17 12:23:40;;;;;;;;;;;20.90;99.90;;;;;;5112301;28;20004;-72
2023/04/17 12:26:05;;;;;;;;;;;21.10;99.90;;;;;;5112920;28;19924;-73
2023/04/17 12:28:31;;;;;;;;;;;21.00;99.00;;;;;;5094845;28;20439;-71
2023/04/17 12:30:57;;;;;;;;;;;21.10;99.80;;;;;;5094126;28;19931;-71
2023/04/17 12:33:22;;;;;;;;;;;20.90;99.30;;;;;;5113168;28;19924;-71
2023/04/17 12:35:48;;;;;;;;;;;20.80;99.90;;;;;;5117328;28;19924;-71
2023/04/17 12:38:14;;;;;;;;;;;20.80;99.90;;;;;;5116327;28;19924;-71
2023/04/17 12:40:42;;;;;;;;;;;20.90;99.90;;;;;;5116713;28;20026;-71
2023/04/17 12:43:11;;;;;;;;;;;20.60;99.90;;;;;;5098516;28;19924;-71
2023/04/17 12:45:37;;;;;;;;;;;20.40;99.90;;;;;;5098066;28;20450;-71
2023/04/17 12:48:03;;;;;;;;;;;20.50;99.90;;;;;;5116859;28;20018;-71
2023/04/17 12:50:28;;;;;;;;;;;20.10;99.90;;;;;;5096693;28;19924;-71
2023/04/17 12:52:54;;;;;;;;;;;19.60;99.90;;;;;;5095568;28;19924;-71
2023/04/17 12:55:20;;;;;;;;;;;19.80;99.90;;;;;;5078687;28;20367;-71
2023/04/17 12:57:45;;;;;;;;;;;19.80;99.90;;;;;;5094859;28;19924;-71
2023/04/17 13:00:11;;;;;;;;;;;19.60;99.90;;;;;;5128478;27;20279;-71
2023/04/17 13:02:37;;;;;;;;;;;19.40;99.90;;;;;;5096279;28;20398;-71
2023/04/17 13:05:03;;;;;;;;;;;19.10;99.90;;;;;;5094798;28;19924;-71
2023/04/17 13:07:29;;;;;;;;;;;19.00;99.90;;;;;;5094210;28;19931;-72
2023/04/17 13:09:55;;;;;;;;;;;18.90;99.90;;;;;;5094609;28;19924;-71
2023/04/17 13:12:20;;;;;;;;;;;18.80;99.90;;;;;;5094263;28;20019;-71
2023/04/17 13:14:46;;;;;;;;;;;18.80;99.90;;;;;;5095188;28;19932;-71
2023/04/17 13:17:12;;;;;;;;;;;18.70;99.90;;;;;;5095665;28;20371;-71
2023/04/17 13:19:38;;;;;;;;;;;18.50;99.90;;;;;;5092128;28;19932;-71
2023/04/17 13:22:04;;;;;;;;;;;18.40;99.90;;;;;;5092288;28;20015;-70
2023/04/17 13:24:30;;;;;;;;;;;18.30;99.90;;;;;;5094221;28;20028;-70
2023/04/17 13:26:58;;;;;;;;;;;18.40;99.90;;;;;;5095583;28;19924;-71
2023/04/17 13:29:24;;;;;;;;;;;18.40;99.90;;;;;;5095815;28;19978;-70
2023/04/17 13:31:50;;;;;;;;;;;18.40;99.90;;;;;;5094123;28;19975;-70
2023/04/17 13:34:15;;;;;;;;;;;18.40;99.90;;;;;;5093849;28;19977;-71
2023/04/17 13:36:43;;;;;;;;;;;18.30;99.90;;;;;;5095973;28;19928;-71
2023/04/17 13:39:09;;;;;;;;;;;18.50;99.90;;;;;;5094570;28;19924;-70
2023/04/17 13:41:38;;;;;;;;;;;18.30;99.90;;;;;;5094428;28;19931;-70
2023/04/17 13:44:03;;;;;;;;;;;18.20;99.90;;;;;;5095138;28;19973;-70
2023/04/17 13:46:30;;;;;;;;;;;18.20;99.90;;;;;;5088506;28;19972;-70
2023/04/17 13:48:56;;;;;;;;;;;18.40;99.90;;;;;;5126033;27;19924;-70
2023/04/17 13:51:22;;;;;;;;;;;18.30;99.90;;;;;;5094487;28;19935;-73
2023/04/17 13:53:47;;;;;;;;;;;18.30;99.90;;;;;;5098154;28;20276;-77
2023/04/17 13:56:13;;;;;;;;;;;18.40;99.90;;;;;;5096582;27;19942;-74
2023/04/17 13:58:39;;;;;;;;;;;18.40;99.90;;;;;;5097215;28;19924;-74
2023/04/17 14:01:05;;;;;;;;;;;18.30;99.90;;;;;;5097736;28;19930;-72
2023/04/17 14:03:30;;;;;;;;;;;18.40;99.90;;;;;;5095268;28;19924;-71
2023/04/17 14:05:56;;;;;;;;;;;18.30;99.90;;;;;;5114750;28;19924;-73
2023/04/17 14:08:21;;;;;;;;;;;18.20;99.90;;;;;;5096214;28;20395;-76
2023/04/17 14:10:47;;;;;;;;;;;18.00;99.90;;;;;;5095952;28;19973;-72
2023/04/17 14:13:13;;;;;;;;;;;17.90;99.90;;;;;;5121074;27;20410;-73
2023/04/17 14:15:39;;;;;;;;;;;17.80;99.90;;;;;;5096312;28;19924;-74
2023/04/17 14:18:04;;;;;;;;;;;17.80;99.90;;;;;;5097157;28;19924;-72
2023/04/17 14:20:30;;;;;;;;;;;17.80;99.90;;;;;;5098037;27;19930;-71